Time;durP1;ratioP1;P1;durP2;ratioP2;P2;SDS_P1;SDS_P2;PMS_P1;PMS_P2;Temp;Humidity;BMP_temperature;BMP_pressure;BME280_temperature;BME280_humidity;BME280_pressure;Samples;Min_cycle;Max_cycle;Signal;HPM_P1;HPM_P2
2022/04/14 00:00:54;;;;;;;5.07;4.67;;;13.20;1.00;;;;;;5079268;28;20488;-60
2022/04/14 00:03:21;;;;;;;6.53;4.93;;;13.10;1.00;;;;;;5079928;28;20472;-60
2022/04/14 00:05:52;;;;;;;5.70;5.20;;;13.10;1.00;;;;;;5080080;28;20951;-60
2022/04/14 00:08:24;;;;;;;5.40;4.67;;;13.10;1.00;;;;;;5079711;28;20497;-60
2022/04/14 00:10:51;;;;;;;6.83;4.30;;;13.00;1.00;;;;;;5079082;28;20469;-60
2022/04/14 00:13:21;;;;;;;4.50;4.10;;;12.90;1.00;;;;;;5079364;28;20493;-60
2022/04/14 00:15:56;;;;;;;5.63;4.53;;;12.90;1.00;;;;;;5079793;28;20883;-60
2022/04/14 00:18:23;;;;;;;5.20;4.60;;;12.90;1.00;;;;;;5079705;28;20548;-61
2022/04/14 00:20:50;;;;;;;5.03;4.53;;;12.80;1.00;;;;;;5079189;28;20519;-60
2022/04/14 00:23:22;;;;;;;4.90;4.50;;;12.80;1.00;;;;;;5079882;28;20835;-60
2022/04/14 00:25:55;;;;;;;5.97;4.90;;;12.70;1.00;;;;;;5079618;28;20461;-61
2022/04/14 00:28:27;;;;;;;7.30;5.00;;;12.70;1.00;;;;;;5079580;28;20496;-60
2022/04/14 00:30:54;;;;;;;6.57;5.87;;;12.60;1.00;;;;;;5078553;28;20523;-60
2022/04/14 00:33:21;;;;;;;6.60;5.77;;;12.60;1.00;;;;;;5079288;28;20461;-61
2022/04/14 00:35:52;;;;;;;6.93;6.20;;;12.70;1.00;;;;;;5079151;28;20503;-60
2022/04/14 00:38:20;;;;;;;9.60;6.80;;;12.60;1.00;;;;;;5079493;28;20461;-60
2022/04/14 00:40:52;;;;;;;8.83;6.23;;;12.60;1.00;;;;;;5078463;28;20493;-60
2022/04/14 00:43:19;;;;;;;9.77;6.53;;;12.60;1.30;;;;;;5079303;28;20479;-61
2022/04/14 00:45:49;;;;;;;8.33;6.80;;;12.60;3.60;;;;;;5079032;28;20959;-60
2022/04/14 00:48:19;;;;;;;9.20;7.37;;;12.60;8.20;;;;;;5078964;28;20877;-60
2022/04/14 00:50:46;;;;;;;7.63;6.77;;;12.60;35.80;;;;;;5078390;28;20530;-60
2022/04/14 00:53:25;;;;;;;7.63;6.90;;;12.60;25.20;;;;;;5078432;28;20465;-61
2022/04/14 00:55:52;;;;;;;8.03;7.23;;;12.60;47.70;;;;;;5078031;28;20836;-60
2022/04/14 00:58:20;;;;;;;10.77;9.27;;;12.60;99.90;;;;;;5078219;28;20825;-61
2022/04/14 01:00:50;;;;;;;10.07;8.90;;;12.60;99.90;;;;;;5078530;28;20964;-60
2022/04/14 01:03:22;;;;;;;10.43;9.40;;;12.60;68.40;;;;;;5078488;28;20807;-60
2022/04/14 01:05:50;;;;;;;11.97;9.77;;;12.50;95.90;;;;;;5078613;28;20526;-60
2022/04/14 01:08:21;;;;;;;16.50;11.07;;;12.60;75.40;;;;;;5078736;28;20529;-61
2022/04/14 01:10:58;;;;;;;11.43;10.30;;;12.50;93.70;;;;;;5078351;28;20507;-61
2022/04/14 01:13:25;;;;;;;11.60;10.40;;;12.50;99.90;;;;;;5077826;28;20531;-60
2022/04/14 01:15:59;;;;;;;11.77;10.03;;;12.50;99.90;;;;;;5078475;28;20542;-61
2022/04/14 01:19:00;;;;;;;11.13;9.97;;;12.50;99.90;;;;;;5078365;28;20512;-60
2022/04/14 01:21:34;;;;;;;11.97;10.77;;;12.50;99.90;;;;;;5078570;28;20468;-60
2022/04/14 01:24:07;;;;;;;11.80;10.17;;;12.50;99.90;;;;;;5077997;28;20461;-61
2022/04/14 01:26:36;;;;;;;11.43;10.30;;;12.50;99.90;;;;;;5077784;28;20571;-60
2022/04/14 01:29:05;;;;;;;12.23;11.00;;;12.40;99.90;;;;;;5078178;28;20854;-61
2022/04/14 01:31:32;;;;;;;12.07;10.87;;;12.40;99.90;;;;;;5078196;28;20514;-61
2022/04/14 01:34:04;;;;;;;13.67;12.27;;;12.40;99.90;;;;;;5077733;28;20916;-58
2022/04/14 01:36:33;;;;;;;12.70;11.40;;;12.40;1.00;;;;;;5077523;28;20489;-59
2022/04/14 01:39:10;;;;;;;12.97;10.43;;;12.40;1.00;;;;;;5077563;28;20515;-60
2022/04/14 01:41:37;;;;;;;10.77;9.67;;;12.30;1.00;;;;;;5078378;28;20461;-60
2022/04/14 01:44:08;;;;;;;12.10;10.00;;;12.30;29.30;;;;;;5077007;28;20493;-61
2022/04/14 01:46:41;;;;;;;13.33;9.93;;;12.20;1.00;;;;;;5078037;28;20461;-60
2022/04/14 01:49:09;;;;;;;13.17;10.43;;;12.20;94.50;;;;;;5077739;28;20493;-60
2022/04/14 01:51:40;;;;;;;14.07;11.10;;;12.20;99.90;;;;;;5077523;28;20523;-61
2022/04/14 01:54:11;;;;;;;12.80;11.50;;;12.20;99.90;;;;;;5078125;28;20461;-58
2022/04/14 01:56:40;;;;;;;13.80;11.40;;;12.20;99.90;;;;;;5077657;28;20750;-58
2022/04/14 01:59:18;;;;;;;13.53;12.13;;;12.20;1.00;;;;;;5076686;28;20909;-60
2022/04/14 02:01:52;;;;;;;15.37;13.80;;;12.20;99.90;;;;;;5077521;28;20464;-60
2022/04/14 02:04:22;;;;;;;16.80;14.80;;;12.20;1.00;;;;;;5078117;28;20513;-60
2022/04/14 02:06:49;;;;;;;17.30;15.43;;;12.20;1.00;;;;;;5077494;28;20466;-60
2022/04/14 02:09:17;;;;;;;19.60;15.43;;;12.20;1.00;;;;;;5077340;28;20564;-60
2022/04/14 02:11:50;;;;;;;18.67;15.53;;;12.20;1.00;;;;;;5077562;28;20461;-60
2022/04/14 02:14:22;;;;;;;18.67;15.20;;;12.20;1.00;;;;;;5077051;28;20496;-60
2022/04/14 02:16:49;;;;;;;18.97;16.80;;;12.20;99.90;;;;;;5076949;28;20890;-60
2022/04/14 02:19:19;;;;;;;24.47;19.40;;;12.20;1.00;;;;;;5077550;28;20457;-58
2022/04/14 02:21:49;;;;;;;20.77;18.63;;;12.20;27.10;;;;;;5077594;28;20472;-58
2022/04/14 02:24:17;;;;;;;21.03;17.43;;;12.20;99.90;;;;;;5077502;28;20470;-58
2022/04/14 02:26:44;;;;;;;22.97;19.40;;;12.10;99.90;;;;;;5076493;28;20465;-58
2022/04/14 02:29:25;;;;;;;22.27;17.93;;;12.20;1.00;;;;;;5076997;28;20917;-58
2022/04/14 02:31:57;;;;;;;19.77;17.73;;;12.20;1.00;;;;;;5076980;28;20461;-58
2022/04/14 02:34:27;;;;;;;21.20;19.07;;;12.20;99.90;;;;;;5077513;28;20467;-58
2022/04/14 02:36:54;;;;;;;21.87;19.57;;;12.20;99.90;;;;;;5076277;28;20996;-58
2022/04/14 02:39:24;;;;;;;19.47;17.43;;;12.20;1.00;;;;;;5077744;28;20484;-58
2022/04/14 02:41:51;;;;;;;22.00;18.57;;;12.20;1.00;;;;;;5077056;28;20914;-57
2022/04/14 02:44:21;;;;;;;25.00;19.17;;;12.20;99.90;;;;;;5077596;28;20465;-57
2022/04/14 02:46:51;;;;;;;26.00;19.53;;;12.20;99.90;;;;;;5076315;28;20468;-57
2022/04/14 02:49:18;;;;;;;21.97;19.77;;;12.20;99.90;;;;;;5076394;28;20841;-57
2022/04/14 02:51:45;;;;;;;24.40;20.80;;;12.20;99.90;;;;;;5076320;28;20462;-60
2022/04/14 02:54:14;;;;;;;23.70;21.20;;;12.20;99.90;;;;;;5077166;28;20515;-58
2022/04/14 02:56:45;;;;;;;22.73;19.47;;;12.20;1.00;;;;;;5076347;28;20465;-56
2022/04/14 02:59:12;;;;;;;22.57;20.00;;;12.20;1.00;;;;;;5059056;28;20465;-58
2022/04/14 03:01:44;;;;;;;20.63;18.43;;;12.20;1.00;;;;;;5076269;28;20921;-58
2022/04/14 03:04:11;;;;;;;23.73;19.20;;;12.20;1.00;;;;;;5076703;28;20468;-57
2022/04/14 03:06:38;;;;;;;23.17;18.90;;;12.20;1.00;;;;;;5076636;28;20460;-58
2022/04/14 03:09:09;;;;;;;24.53;18.93;;;12.20;56.00;;;;;;5076015;28;20489;-58
2022/04/14 03:11:39;;;;;;;23.77;20.33;;;12.20;1.00;;;;;;5080881;28;20461;-58
2022/04/14 03:14:21;;;;;;;24.40;20.03;;;12.20;99.90;;;;;;5081347;28;20521;-58
2022/04/14 03:16:48;;;;;;;22.70;20.30;;;12.20;57.20;;;;;;5080773;28;20523;-55
2022/04/14 03:19:18;;;;;;;23.00;18.53;;;12.20;1.00;;;;;;5080195;28;20514;-58
2022/04/14 03:21:46;;;;;;;24.70;20.33;;;12.20;1.00;;;;;;5081069;28;20514;-57
2022/04/14 03:24:21;;;;;;;21.93;19.53;;;12.10;28.40;;;;;;5080307;28;20816;-58
2022/04/14 03:26:50;;;;;;;22.93;19.97;;;12.10;99.90;;;;;;5080259;28;20471;-57
2022/04/14 03:29:19;;;;;;;24.57;20.80;;;12.10;1.00;;;;;;5079961;28;20795;-56
2022/04/14 03:31:46;;;;;;;23.10;19.73;;;12.10;1.00;;;;;;5080652;28;20819;-58
2022/04/14 03:34:15;;;;;;;21.67;19.47;;;12.10;1.00;;;;;;5080271;28;20460;-56
2022/04/14 03:36:45;;;;;;;22.93;20.43;;;12.10;1.00;;;;;;5079957;28;20538;-58
2022/04/14 03:39:12;;;;;;;25.10;20.87;;;12.10;99.90;;;;;;5079883;28;20453;-58
2022/04/14 03:41:52;;;;;;;25.40;20.97;;;12.00;99.90;;;;;;5079816;28;20465;-58
2022/04/14 03:44:21;;;;;;;29.73;20.40;;;12.00;99.90;;;;;;5080464;28;20951;-58
2022/04/14 03:46:48;;;;;;;22.73;20.30;;;12.00;1.00;;;;;;5080245;28;20461;-59
2022/04/14 03:49:15;;;;;;;21.80;19.30;;;12.00;21.50;;;;;;5079603;28;20780;-59
2022/04/14 03:51:44;;;;;;;24.07;19.93;;;12.00;40.90;;;;;;5080121;28;20461;-58
2022/04/14 03:54:11;;;;;;;27.97;22.37;;;12.00;94.00;;;;;;5079981;28;20468;-58
2022/04/14 03:56:41;;;;;;;23.20;20.80;;;12.00;99.90;;;;;;5079727;28;20461;-58
2022/04/14 03:59:14;;;;;;;24.50;21.97;;;12.00;1.00;;;;;;5079783;28;20461;-58
2022/04/14 04:01:44;;;;;;;23.97;21.43;;;12.00;1.00;;;;;;5079556;28;20464;-57
2022/04/14 04:04:26;;;;;;;25.50;21.07;;;12.00;1.00;;;;;;5079929;28;20453;-58
2022/04/14 04:06:53;;;;;;;23.80;21.27;;;12.00;1.00;;;;;;5079265;28;20465;-59
2022/04/14 04:09:23;;;;;;;25.87;22.17;;;12.00;27.30;;;;;;5079660;28;20489;-59
2022/04/14 04:11:58;;;;;;;28.53;24.33;;;12.00;99.90;;;;;;5078827;28;20464;-58
2022/04/14 04:14:26;;;;;;;27.10;22.97;;;12.00;99.90;;;;;;5079709;28;20461;-59
2022/04/14 04:16:55;;;;;;;26.67;22.37;;;12.00;99.90;;;;;;5079447;28;20472;-58
2022/04/14 04:19:21;;;;;;;26.03;22.87;;;12.00;99.90;;;;;;5079759;28;20453;-58
2022/04/14 04:22:06;;;;;;;26.90;23.90;;;12.00;99.90;;;;;;5078106;28;20458;-58
2022/04/14 04:24:36;;;;;;;24.87;22.30;;;11.90;99.90;;;;;;5074716;28;20932;-59
2022/04/14 04:27:03;;;;;;;26.90;24.03;;;11.80;99.90;;;;;;5060669;28;20464;-56
2022/04/14 04:29:31;;;;;;;25.30;22.47;;;11.80;99.90;;;;;;5058003;28;20490;-57
2022/04/14 04:32:00;;;;;;;27.73;23.50;;;11.90;99.90;;;;;;5066314;28;20465;-56
2022/04/14 04:34:29;;;;;;;27.20;22.90;;;11.90;99.90;;;;;;5078548;28;20775;-58
2022/04/14 04:36:56;;;;;;;27.03;23.83;;;11.90;99.90;;;;;;5078723;28;20492;-58
2022/04/14 04:39:23;;;;;;;27.37;22.63;;;12.00;99.90;;;;;;5079370;28;20530;-58
2022/04/14 04:41:50;;;;;;;29.40;24.90;;;12.00;99.90;;;;;;5078961;28;20458;-58
2022/04/14 04:44:22;;;;;;;27.17;24.27;;;11.90;99.90;;;;;;5079413;28;20465;-57
2022/04/14 04:46:49;;;;;;;28.10;24.00;;;11.90;99.90;;;;;;5077949;28;20465;-56
2022/04/14 04:49:25;;;;;;;26.27;22.80;;;11.90;99.90;;;;;;5078254;28;20523;-58
2022/04/14 04:51:52;;;;;;;30.40;23.87;;;11.90;99.90;;;;;;5078122;28;20467;-59
2022/04/14 04:57:06;;;;;;;27.40;22.67;;;11.90;99.90;;;;;;5063705;28;20449;-59
2022/04/14 04:59:33;;;;;;;30.90;24.70;;;11.90;99.90;;;;;;5077475;28;20475;-58
2022/04/14 05:02:03;;;;;;;27.33;24.33;;;11.90;99.90;;;;;;5077458;28;20468;-58
2022/04/14 05:04:33;;;;;;;29.53;25.00;;;11.90;99.90;;;;;;5077458;28;20485;-58
2022/04/14 05:07:03;;;;;;;29.50;24.67;;;11.90;99.90;;;;;;5077997;28;20820;-58
2022/04/14 05:09:35;;;;;;;27.93;22.77;;;11.80;99.90;;;;;;5078811;28;20481;-58
2022/04/14 05:12:07;;;;;;;30.73;25.63;;;11.90;99.90;;;;;;5078635;28;20465;-58
2022/04/14 05:14:34;;;;;;;28.57;25.47;;;11.90;99.90;;;;;;5077597;28;20461;-58
2022/04/14 05:17:05;;;;;;;29.90;25.60;;;11.90;99.90;;;;;;5077074;28;20457;-58
2022/04/14 05:19:35;;;;;;;31.40;25.03;;;11.90;99.90;;;;;;5078403;28;20465;-58
2022/04/14 05:22:08;;;;;;;30.07;25.50;;;11.90;99.90;;;;;;5078355;28;20886;-58
2022/04/14 05:24:53;;;;;;;31.17;23.80;;;12.00;99.90;;;;;;5077808;28;20465;-55
2022/04/14 05:27:20;;;;;;;27.90;24.43;;;12.00;99.90;;;;;;5076974;28;20559;-58
2022/04/14 05:29:50;;;;;;;31.73;26.73;;;11.90;99.90;;;;;;5078134;28;20936;-58
2022/04/14 05:32:17;;;;;;;31.03;25.53;;;11.90;99.90;;;;;;5078701;28;20469;-58
2022/04/14 05:34:47;;;;;;;31.00;25.43;;;11.90;99.90;;;;;;5077495;28;20514;-58
2022/04/14 05:37:19;;;;;;;27.83;24.83;;;11.90;99.90;;;;;;5077831;28;20495;-61
2022/04/14 05:39:46;;;;;;;30.40;25.90;;;12.00;99.90;;;;;;5075763;28;20591;-61
2022/04/14 05:42:13;;;;;;;28.50;24.30;;;12.00;99.90;;;;;;5077010;28;20457;-61
2022/04/14 05:44:40;;;;;;;29.17;24.53;;;12.10;99.90;;;;;;5077125;28;20525;-60
2022/04/14 05:47:13;;;;;;;29.53;25.50;;;12.10;99.90;;;;;;5077309;28;20547;-61
2022/04/14 05:49:40;;;;;;;29.50;24.73;;;12.10;99.90;;;;;;5076725;28;20493;-61
2022/04/14 05:52:08;;;;;;;29.43;24.37;;;12.10;99.90;;;;;;5077796;28;20462;-61
2022/04/14 05:54:44;;;;;;;29.50;24.10;;;12.20;99.90;;;;;;5077028;28;20493;-62
2022/04/14 05:57:11;;;;;;;28.13;23.83;;;12.30;99.90;;;;;;5071448;28;20461;-60
2022/04/14 05:59:40;;;;;;;27.77;23.67;;;12.30;99.90;;;;;;5076113;28;20461;-61
2022/04/14 06:02:07;;;;;;;31.87;26.20;;;12.40;99.90;;;;;;5077191;28;20461;-61
2022/04/14 06:07:22;;;;;;;27.70;24.70;;;12.50;99.90;;;;;;5075479;28;20760;-61
2022/04/14 06:09:48;;;;;;;28.80;24.37;;;12.60;99.90;;;;;;5075907;28;20504;-60
2022/04/14 06:12:20;;;;;;;29.27;23.20;;;12.70;99.90;;;;;;5076464;28;20894;-61
2022/04/14 06:14:50;;;;;;;27.80;24.83;;;12.70;99.90;;;;;;5077193;28;20461;-61
2022/04/14 06:17:17;;;;;;;28.13;24.83;;;12.80;99.90;;;;;;5076443;28;20950;-61
2022/04/14 06:19:44;;;;;;;26.70;23.87;;;12.80;99.90;;;;;;5076807;28;20457;-60
2022/04/14 06:22:12;;;;;;;24.90;22.20;;;12.80;99.90;;;;;;5077047;28;20916;-61
2022/04/14 06:24:47;;;;;;;31.27;24.77;;;12.90;39.60;;;;;;5076909;28;20809;-61
2022/04/14 06:27:14;;;;;;;29.27;23.47;;;12.90;99.90;;;;;;5076376;28;20486;-61
2022/04/14 06:29:44;;;;;;;29.00;24.90;;;12.90;1.00;;;;;;5076681;28;20489;-61
2022/04/14 06:32:11;;;;;;;26.80;23.90;;;12.90;1.00;;;;;;5076533;28;20558;-60
2022/04/14 06:34:40;;;;;;;31.27;26.83;;;12.90;1.00;;;;;;5076972;28;20491;-61
2022/04/14 06:37:10;;;;;;;29.90;25.27;;;12.90;1.00;;;;;;5076299;28;20820;-59
2022/04/14 06:39:42;;;;;;;29.40;26.30;;;13.00;1.00;;;;;;5077377;28;20492;-61
2022/04/14 06:42:12;;;;;;;33.00;25.70;;;13.10;99.90;;;;;;5076219;28;20452;-61
2022/04/14 06:44:39;;;;;;;29.53;26.33;;;13.10;1.00;;;;;;5075922;28;20467;-61
2022/04/14 06:47:14;;;;;;;28.23;24.67;;;13.20;99.90;;;;;;5075005;28;20461;-61
2022/04/14 06:49:41;;;;;;;31.13;27.73;;;13.20;1.00;;;;;;5075429;28;20520;-62
2022/04/14 06:52:16;;;;;;;40.07;32.70;;;13.20;1.00;;;;;;5075749;28;20812;-61
2022/04/14 06:54:46;;;;;;;38.53;31.20;;;13.30;1.00;;;;;;5075855;28;20519;-61
2022/04/14 06:57:20;;;;;;;46.90;36.37;;;13.40;99.90;;;;;;5076355;28;20531;-61
2022/04/14 06:59:55;;;;;;;32.03;27.20;;;13.50;99.90;;;;;;5075859;28;20511;-61
2022/04/14 07:02:25;;;;;;;34.23;30.53;;;13.70;1.00;;;;;;5075807;28;20469;-61
2022/04/14 07:05:01;;;;;;;36.27;31.17;;;13.80;99.90;;;;;;5076029;28;20469;-61
2022/04/14 07:07:28;;;;;;;45.30;31.73;;;14.00;1.00;;;;;;5076299;28;20754;-61
2022/04/14 07:09:56;;;;;;;43.97;34.30;;;14.00;99.90;;;;;;5075725;28;20489;-61
2022/04/14 07:12:25;;;;;;;51.80;37.90;;;14.20;99.90;;;;;;5076120;28;20523;-62
2022/04/14 07:14:55;;;;;;;52.50;38.70;;;14.30;9.60;;;;;;5076229;28;20471;-61
2022/04/14 07:17:24;;;;;;;60.40;43.70;;;14.50;1.00;;;;;;5076989;28;20462;-61
2022/04/14 07:20:04;;;;;;;63.60;47.13;;;14.70;1.00;;;;;;5076008;28;20462;-62
2022/04/14 07:22:41;;;;;;;70.87;51.20;;;14.80;1.00;;;;;;5072426;28;20508;-62
2022/04/14 07:25:17;;;;;;;63.50;48.30;;;15.00;1.00;;;;;;5066719;28;20788;-62
2022/04/14 07:27:46;;;;;;;68.37;51.63;;;15.00;1.00;;;;;;5065519;28;20461;-62
2022/04/14 07:30:13;;;;;;;68.63;51.53;;;15.00;1.00;;;;;;5061478;28;20485;-62
2022/04/14 07:32:43;;;;;;;59.20;47.90;;;15.20;1.00;;;;;;5074549;28;20497;-62
2022/04/14 07:35:17;;;;;;;65.33;47.30;;;15.30;1.00;;;;;;5076608;28;20560;-61
2022/04/14 07:37:48;;;;;;;72.33;49.63;;;15.30;1.00;;;;;;5077086;28;20489;-62
2022/04/14 07:40:20;;;;;;;62.40;48.17;;;15.50;1.00;;;;;;5076488;28;20511;-62
2022/04/14 07:42:49;;;;;;;61.30;47.77;;;15.70;1.00;;;;;;5076675;28;20465;-62
2022/04/14 07:45:28;;;;;;;60.47;48.07;;;15.60;1.00;;;;;;5076650;28;20473;-62
2022/04/14 07:47:55;;;;;;;58.63;46.93;;;15.60;1.00;;;;;;5077692;28;20523;-62
2022/04/14 07:50:22;;;;;;;64.43;47.20;;;15.60;1.00;;;;;;5076609;28;20985;-62
2022/04/14 07:52:50;;;;;;;58.90;47.27;;;15.60;1.00;;;;;;5076384;28;20515;-62
2022/04/14 07:55:21;;;;;;;65.70;49.43;;;15.60;1.00;;;;;;5075546;28;20550;-62
2022/04/14 07:57:52;;;;;;;62.07;48.00;;;15.30;1.00;;;;;;5079263;28;20465;-62
2022/04/14 08:00:23;;;;;;;63.77;49.20;;;15.30;1.00;;;;;;5079874;28;20460;-62
2022/04/14 08:02:54;;;;;;;59.37;48.20;;;15.20;1.00;;;;;;5079634;28;20464;-63
2022/04/14 08:05:22;;;;;;;59.73;46.70;;;15.10;1.00;;;;;;5079202;28;20551;-62
2022/04/14 08:07:49;;;;;;;63.80;48.90;;;15.20;1.00;;;;;;5079836;28;20803;-62
2022/04/14 08:10:16;;;;;;;66.40;50.50;;;15.00;1.00;;;;;;5079631;28;20836;-62
2022/04/14 08:12:43;;;;;;;66.43;49.10;;;15.00;1.00;;;;;;5077856;28;20461;-61
2022/04/14 08:15:15;;;;;;;65.27;51.77;;;14.80;1.00;;;;;;5078802;28;20532;-62
2022/04/14 08:17:50;;;;;;;66.13;50.93;;;14.70;1.00;;;;;;5077990;28;20457;-62
2022/04/14 08:20:23;;;;;;;60.43;48.23;;;14.70;1.00;;;;;;5078928;28;20514;-62
2022/04/14 08:22:54;;;;;;;64.67;51.57;;;14.80;1.00;;;;;;5079082;28;20457;-62
2022/04/14 08:25:30;;;;;;;70.50;54.87;;;15.00;1.00;;;;;;5079196;28;20465;-62
2022/04/14 08:27:59;;;;;;;65.90;49.90;;;15.40;1.00;;;;;;5077224;28;20461;-62
2022/04/14 08:30:35;;;;;;;65.00;51.47;;;15.70;1.00;;;;;;5078674;28;20829;-62
2022/04/14 08:33:12;;;;;;;63.37;50.40;;;16.00;1.00;;;;;;5075409;28;20461;-63
2022/04/14 08:35:41;;;;;;;68.30;51.67;;;15.90;1.00;;;;;;5066302;28;20481;-62
2022/04/14 08:38:14;;;;;;;65.40;51.57;;;15.60;1.00;;;;;;5077512;28;20507;-62
2022/04/14 08:40:53;;;;;;;67.43;54.43;;;15.70;1.00;;;;;;5078522;28;20453;-62
2022/04/14 08:43:32;;;;;;;68.10;53.73;;;16.10;1.00;;;;;;5059547;28;20501;-62
2022/04/14 08:46:01;;;;;;;63.13;49.30;;;17.10;1.00;;;;;;5073010;28;20555;-62
2022/04/14 08:48:29;;;;;;;59.80;48.97;;;18.20;1.00;;;;;;5078627;28;20870;-62
2022/04/14 08:51:01;;;;;;;56.60;48.50;;;18.10;99.90;;;;;;5078291;28;20961;-62
2022/04/14 08:53:29;;;;;;;60.57;50.60;;;17.50;99.90;;;;;;5079054;28;20464;-62
2022/04/14 08:56:00;;;;;;;65.00;53.33;;;17.40;99.90;;;;;;5078082;28;20461;-62
2022/04/14 08:58:30;;;;;;;57.47;49.17;;;17.40;99.90;;;;;;5077940;28;20469;-61
2022/04/14 09:01:04;;;;;;;56.33;47.40;;;18.10;99.90;;;;;;5072540;28;20464;-62
2022/04/14 09:03:34;;;;;;;52.00;46.30;;;18.70;99.90;;;;;;5074327;28;20791;-62
2022/04/14 09:06:02;;;;;;;47.00;40.30;;;19.30;99.90;;;;;;5078349;28;20507;-63
2022/04/14 09:08:30;;;;;;;53.60;43.93;;;19.70;99.90;;;;;;5076600;28;20538;-63
2022/04/14 09:10:59;;;;;;;51.47;44.80;;;19.70;99.90;;;;;;5077725;28;20783;-60
2022/04/14 09:13:28;;;;;;;47.50;40.27;;;19.40;99.90;;;;;;5058698;28;20499;-60
2022/04/14 09:15:56;;;;;;;47.17;41.30;;;19.20;99.90;;;;;;5078453;28;20890;-60
2022/04/14 09:18:25;;;;;;;40.53;35.80;;;19.30;99.90;;;;;;5077243;28;20515;-60
2022/04/14 09:21:05;;;;;;;41.37;36.73;;;19.50;99.90;;;;;;5075007;28;20465;-59
2022/04/14 09:23:32;;;;;;;42.93;36.10;;;20.30;99.90;;;;;;5068802;28;20461;-61
2022/04/14 09:26:22;;;;;;;39.57;35.47;;;20.80;99.90;;;;;;5074002;28;20457;-60
2022/04/14 09:29:10;;;;;;;32.70;28.97;;;20.60;99.90;;;;;;5075036;28;20457;-60
2022/04/14 09:31:54;;;;;;;34.70;31.00;;;20.80;99.90;;;;;;5072048;28;20493;-61
2022/04/14 09:34:48;;;;;;;32.93;27.60;;;20.90;99.90;;;;;;5074943;28;20526;-60
2022/04/14 09:37:17;;;;;;;39.47;35.23;;;19.70;99.90;;;;;;5070334;28;20588;-60
2022/04/14 09:39:51;;;;;;;31.50;28.10;;;19.10;99.90;;;;;;5076676;28;20462;-61
2022/04/14 09:42:20;;;;;;;30.17;26.57;;;19.10;99.90;;;;;;5075956;28;20595;-60
2022/04/14 09:44:54;;;;;;;29.10;26.10;;;19.50;99.90;;;;;;5077405;28;20849;-59
2022/04/14 09:47:48;;;;;;;26.97;24.37;;;19.10;99.90;;;;;;5070538;28;20468;-60
2022/04/14 09:50:28;;;;;;;30.10;27.10;;;19.20;99.90;;;;;;5074141;28;20519;-60
2022/04/14 09:53:07;;;;;;;31.23;28.13;;;20.10;99.90;;;;;;5075378;28;20514;-60
2022/04/14 09:55:39;;;;;;;32.20;29.00;;;20.90;99.90;;;;;;5076310;28;20497;-61
2022/04/14 09:58:34;;;;;;;25.83;23.40;;;20.30;99.90;;;;;;5075480;28;20462;-60
2022/04/14 10:01:01;;;;;;;28.37;25.57;;;19.90;99.90;;;;;;5067243;28;20515;-60
2022/04/14 10:03:40;;;;;;;26.73;24.07;;;19.50;99.90;;;;;;5076449;28;20484;-60
2022/04/14 10:06:07;;;;;;;26.27;23.40;;;20.30;99.90;;;;;;5075262;28;20469;-61
2022/04/14 10:08:49;;;;;;;25.73;23.13;;;20.60;99.90;;;;;;5076841;28;20466;-60
2022/04/14 10:11:16;;;;;;;27.50;24.60;;;20.20;99.90;;;;;;5071702;28;20547;-59
2022/04/14 10:13:50;;;;;;;26.73;24.03;;;20.00;99.90;;;;;;5076940;28;20461;-60
2022/04/14 10:16:23;;;;;;;24.60;22.00;;;20.70;99.90;;;;;;5075526;28;20550;-60
2022/04/14 10:18:55;;;;;;;21.80;19.60;;;20.70;99.90;;;;;;5074915;28;20464;-62
2022/04/14 10:21:22;;;;;;;21.63;19.50;;;21.70;99.90;;;;;;5076191;28;20483;-62
2022/04/14 10:23:51;;;;;;;22.40;20.50;;;22.40;99.90;;;;;;5077334;28;20519;-62
2022/04/14 10:26:22;;;;;;;23.67;21.27;;;22.60;99.90;;;;;;5071506;28;20497;-63
2022/04/14 10:28:50;;;;;;;23.47;19.93;;;21.70;99.90;;;;;;5076060;28;20967;-60
2022/04/14 10:31:21;;;;;;;20.77;18.67;;;21.60;99.90;;;;;;5075236;28;20548;-60
2022/04/14 10:33:51;;;;;;;22.53;20.53;;;22.10;99.90;;;;;;5076726;28;20523;-59
2022/04/14 10:36:18;;;;;;;21.87;19.73;;;22.10;99.90;;;;;;5071991;28;20525;-60
2022/04/14 10:38:58;;;;;;;21.27;19.30;;;21.50;99.90;;;;;;5066716;28;20466;-59
2022/04/14 10:41:32;;;;;;;19.73;18.00;;;19.90;99.90;;;;;;5066942;28;20461;-60
2022/04/14 10:44:04;;;;;;;17.00;15.47;;;19.50;99.90;;;;;;5076599;28;20977;-60
2022/04/14 10:46:48;;;;;;;17.30;15.80;;;19.90;99.90;;;;;;5072648;28;20482;-59
2022/04/14 10:49:24;;;;;;;18.53;16.83;;;21.20;99.90;;;;;;5061156;28;20520;-60
2022/04/14 10:51:57;;;;;;;17.90;16.20;;;21.10;99.90;;;;;;5076012;28;21046;-60
2022/04/14 10:54:25;;;;;;;17.13;15.53;;;21.40;99.90;;;;;;5076677;28;20902;-60
2022/04/14 10:56:57;;;;;;;20.53;18.10;;;21.50;99.90;;;;;;5070400;28;20469;-60
2022/04/14 10:59:47;;;;;;;18.27;16.57;;;20.90;99.90;;;;;;5075376;28;20472;-60
2022/04/14 11:02:17;;;;;;;19.10;17.40;;;21.30;99.90;;;;;;5075792;28;20457;-59
2022/04/14 11:05:09;;;;;;;17.87;16.27;;;21.30;99.90;;;;;;5075411;28;20467;-59
2022/04/14 11:07:36;;;;;;;15.03;13.70;;;21.90;99.90;;;;;;5076146;28;20465;-60
2022/04/14 11:10:21;;;;;;;15.30;13.80;;;21.30;99.90;;;;;;5076270;28;20514;-59
2022/04/14 11:12:57;;;;;;;16.20;14.70;;;20.50;99.90;;;;;;5075984;28;20546;-59
2022/04/14 11:15:34;;;;;;;17.73;16.23;;;20.60;99.90;;;;;;5076218;28;20500;-59
2022/04/14 11:18:10;;;;;;;18.53;16.80;;;21.50;99.90;;;;;;5076392;28;20792;-60
2022/04/14 11:21:01;;;;;;;16.50;14.90;;;22.30;99.90;;;;;;5065306;28;20467;-60
2022/04/14 11:23:36;;;;;;;15.10;13.60;;;22.50;99.90;;;;;;5063026;28;20825;-60
2022/04/14 11:26:09;;;;;;;14.73;13.43;;;22.10;99.90;;;;;;5066780;28;20511;-59
2022/04/14 11:28:39;;;;;;;16.70;15.03;;;22.30;99.90;;;;;;5063199;28;20927;-59
2022/04/14 11:31:24;;;;;;;17.17;15.67;;;22.70;99.90;;;;;;5077901;28;20493;-59
2022/04/14 11:33:57;;;;;;;17.40;15.80;;;23.10;99.90;;;;;;5069686;28;20465;-59
2022/04/14 11:36:40;;;;;;;16.30;14.80;;;22.80;99.90;;;;;;5068791;28;20493;-59
2022/04/14 11:39:08;;;;;;;14.97;13.60;;;23.00;99.90;;;;;;5070416;28;20473;-59
2022/04/14 11:41:45;;;;;;;10.23;9.43;;;22.00;99.90;;;;;;5077966;28;20492;-58
2022/04/14 11:44:13;;;;;;;14.53;13.03;;;21.70;99.90;;;;;;5070735;28;20489;-59
2022/04/14 11:46:41;;;;;;;16.30;14.70;;;21.40;99.90;;;;;;5067280;28;20527;-59
2022/04/14 11:49:14;;;;;;;18.37;16.47;;;21.10;99.90;;;;;;5069545;28;20454;-56
2022/04/14 11:51:50;;;;;;;20.23;18.30;;;20.40;99.90;;;;;;5069512;28;20496;-59
2022/04/14 11:54:22;;;;;;;18.27;16.47;;;20.50;99.90;;;;;;5068600;28;20515;-59
2022/04/14 11:56:54;;;;;;;18.47;16.73;;;21.80;99.90;;;;;;5065736;28;20462;-58
2022/04/14 11:59:36;;;;;;;20.33;18.43;;;22.30;99.90;;;;;;5069606;28;20541;-59
2022/04/14 12:02:05;;;;;;;22.07;19.67;;;22.30;99.90;;;;;;5068619;28;20456;-58
2022/04/14 12:04:38;;;;;;;22.50;20.50;;;20.90;99.90;;;;;;5071818;28;20475;-58
2022/04/14 12:07:11;;;;;;;23.20;20.90;;;19.90;99.90;;;;;;5064204;28;20492;-59
2022/04/14 12:09:38;;;;;;;22.93;20.73;;;19.80;99.90;;;;;;5068341;28;20823;-59
2022/04/14 12:12:18;;;;;;;25.10;22.70;;;19.60;99.90;;;;;;5067835;28;20530;-59
2022/04/14 12:14:50;;;;;;;22.40;20.07;;;19.50;99.90;;;;;;5067434;28;20457;-59
2022/04/14 12:17:23;;;;;;;23.23;21.13;;;19.50;99.90;;;;;;5068454;28;20465;-58
2022/04/14 12:19:53;;;;;;;25.47;22.83;;;19.10;99.90;;;;;;5070549;28;20458;-58
2022/04/14 12:22:20;;;;;;;25.20;22.70;;;19.20;99.90;;;;;;5073515;28;20457;-58
2022/04/14 12:24:55;;;;;;;25.67;23.27;;;18.90;99.90;;;;;;5079225;28;20951;-59
2022/04/14 12:27:34;;;;;;;25.50;22.83;;;18.70;99.90;;;;;;5079266;28;20751;-59
2022/04/14 12:30:09;;;;;;;26.80;24.30;;;18.90;99.90;;;;;;5079288;28;20457;-58
2022/04/14 12:32:38;;;;;;;27.23;24.53;;;18.70;99.90;;;;;;5076700;28;20591;-58
2022/04/14 12:35:08;;;;;;;25.97;23.40;;;18.60;99.90;;;;;;5070718;28;20469;-59
2022/04/14 12:37:40;;;;;;;26.20;23.40;;;19.00;99.90;;;;;;5074581;28;20583;-59
2022/04/14 12:40:12;;;;;;;24.00;21.70;;;19.30;99.90;;;;;;5074768;28;20466;-59
2022/04/14 12:42:43;;;;;;;24.90;22.40;;;19.60;99.90;;;;;;5063659;28;20815;-58
2022/04/14 12:45:14;;;;;;;21.20;19.10;;;19.40;99.90;;;;;;5072591;28;20466;-59
2022/04/14 12:47:43;;;;;;;19.30;16.50;;;19.30;99.90;;;;;;5075508;28;20483;-58
2022/04/14 12:50:11;;;;;;;19.40;17.37;;;19.20;99.90;;;;;;5079152;28;20740;-59
2022/04/14 12:52:48;;;;;;;16.57;14.90;;;19.30;99.90;;;;;;5078027;28;20493;-59
2022/04/14 12:55:22;;;;;;;15.47;14.13;;;19.40;99.90;;;;;;5074062;28;20567;-61
2022/04/14 12:57:52;;;;;;;13.93;12.63;;;19.50;99.90;;;;;;5067010;28;20466;-61